createdAt,value
2019-05-30T00:03:52.035Z,17.51
2019-05-30T00:08:54.269Z,17.30
2019-05-30T00:13:56.680Z,17.14
2019-05-30T00:18:58.807Z,17.24
2019-05-30T00:24:01.998Z,17.16
2019-05-30T00:29:04.525Z,16.97
2019-05-30T00:34:06.515Z,17.00
2019-05-30T00:39:08.641Z,16.81
2019-05-30T00:44:10.660Z,16.62
2019-05-30T00:49:12.493Z,16.70
2019-05-30T00:54:14.321Z,16.78
2019-05-30T00:59:16.245Z,16.62
2019-05-30T01:04:18.168Z,16.75
2019-05-30T01:09:20.123Z,16.84
2019-05-30T01:14:22.308Z,16.82
2019-05-30T01:19:24.159Z,17.04
2019-05-30T01:24:26.026Z,17.13
2019-05-30T01:29:27.835Z,17.16
2019-05-30T01:34:29.718Z,17.31
2019-05-30T01:39:31.491Z,17.01
2019-05-30T01:44:33.336Z,16.78
2019-05-30T01:49:35.139Z,16.90
2019-05-30T01:54:37.001Z,16.90
2019-05-30T01:59:38.822Z,16.18
2019-05-30T02:04:40.671Z,16.11
2019-05-30T02:09:42.526Z,16.13
2019-05-30T02:14:44.394Z,16.07
2019-05-30T02:19:46.219Z,16.25
2019-05-30T02:24:48.051Z,15.86
2019-05-30T02:29:49.932Z,15.63
2019-05-30T02:34:51.776Z,15.73
2019-05-30T02:39:54.464Z,16.04
2019-05-30T02:44:56.254Z,16.10
2019-05-30T02:49:58.086Z,15.99
2019-05-30T02:55:01.583Z,16.18
2019-05-30T03:00:08.212Z,15.98
2019-05-30T03:05:12.614Z,15.90
2019-05-30T03:10:15.487Z,15.97
2019-05-30T03:15:18.270Z,15.98
2019-05-30T03:20:23.094Z,16.13
2019-05-30T03:25:23.993Z,16.29
2019-05-30T03:30:29.225Z,16.12
2019-05-30T03:35:40.340Z,16.01
2019-05-30T03:40:34.644Z,16.19
2019-05-30T03:45:38.334Z,15.97
2019-05-30T03:50:43.766Z,16.06
2019-05-30T03:55:49.210Z,16.22
2019-05-30T04:00:57.535Z,16.39
2019-05-30T04:06:02.989Z,16.87
2019-05-30T04:11:10.431Z,16.92
2019-05-30T04:16:13.498Z,17.06
2019-05-30T04:21:18.708Z,17.19
2019-05-30T04:26:19.774Z,17.55
2019-05-30T04:31:21.631Z,17.68
2019-05-30T04:36:23.505Z,17.52
2019-05-30T04:41:25.293Z,17.33
2019-05-30T04:46:27.125Z,17.63
2019-05-30T04:51:28.902Z,17.77
2019-05-30T04:56:30.782Z,17.75
2019-05-30T05:01:32.592Z,17.80
2019-05-30T05:06:34.416Z,17.73
2019-05-30T05:11:36.226Z,17.90
2019-05-30T05:16:38.100Z,18.00
2019-05-30T05:21:39.892Z,18.78
2019-05-30T05:26:41.782Z,19.26
2019-05-30T05:31:43.565Z,19.66
2019-05-30T05:36:45.394Z,20.01
2019-05-30T05:41:48.209Z,20.28
2019-05-30T05:46:51.056Z,20.30
2019-05-30T05:51:52.886Z,20.79
2019-05-30T05:56:54.749Z,21.19
2019-05-30T06:01:56.550Z,21.74
2019-05-30T06:06:58.421Z,21.74
2019-05-30T06:12:00.250Z,22.17
2019-05-30T06:17:02.086Z,22.81
2019-05-30T06:35:59.348Z,23.95
2019-05-30T06:41:01.227Z,23.78
2019-05-30T06:46:03.288Z,23.49
2019-05-30T06:51:05.104Z,23.12
2019-05-30T06:56:06.969Z,23.15
2019-05-30T07:01:09.801Z,22.80
2019-05-30T07:06:12.174Z,23.07
2019-05-30T07:11:15.636Z,23.60
2019-05-30T07:16:17.449Z,24.13
2019-05-30T07:21:19.885Z,24.51
2019-05-30T07:26:21.706Z,24.64
2019-05-30T07:31:24.087Z,24.85
2019-05-30T07:36:26.194Z,25.29
2019-05-30T07:41:29.174Z,25.79
2019-05-30T07:46:31.080Z,26.26
2019-05-30T07:51:32.956Z,26.53
2019-05-30T07:56:35.159Z,26.59
2019-05-30T08:01:37.170Z,26.75
2019-05-30T08:06:39.036Z,26.54
2019-05-30T08:11:40.961Z,25.79
2019-05-30T08:16:42.835Z,24.64
2019-05-30T08:21:44.825Z,24.17
2019-05-30T08:26:47.002Z,24.34
2019-05-30T08:31:48.869Z,24.92
2019-05-30T08:36:50.710Z,24.71
2019-05-30T08:41:52.514Z,23.77
2019-05-30T08:46:54.528Z,23.57
2019-05-30T08:51:56.412Z,23.21
2019-05-30T08:56:58.317Z,23.36
2019-05-30T09:02:00.163Z,23.26
2019-05-30T09:07:01.986Z,24.25
2019-05-30T09:12:03.879Z,25.05
2019-05-30T09:17:05.827Z,25.11
2019-05-30T09:22:07.721Z,26.16
2019-05-30T09:27:09.599Z,26.13
2019-05-30T09:32:11.492Z,26.17
2019-05-30T09:37:13.361Z,25.92
2019-05-30T09:42:15.171Z,26.09
2019-05-30T09:47:17.034Z,26.39
2019-05-30T09:52:18.829Z,26.65
2019-05-30T09:57:20.710Z,26.22
2019-05-30T10:02:22.520Z,25.82
2019-05-30T10:07:24.448Z,25.49
2019-05-30T10:12:26.293Z,25.39
2019-05-30T10:17:28.175Z,25.32
2019-05-30T10:22:30.098Z,25.37
2019-05-30T10:27:31.966Z,25.63
2019-05-30T10:32:33.762Z,26.11
2019-05-30T10:37:35.587Z,26.14
2019-05-30T10:42:37.439Z,25.91
2019-05-30T10:47:39.299Z,25.95
2019-05-30T10:52:41.337Z,26.62
2019-05-30T10:57:43.220Z,27.06
2019-05-30T11:02:47.098Z,27.50
2019-05-30T11:08:06.831Z,27.57
2019-05-30T11:13:12.207Z,26.99
2019-05-30T11:18:14.046Z,26.96
2019-05-30T11:23:16.070Z,26.87
2019-05-30T11:28:17.817Z,26.58
2019-05-30T11:33:19.730Z,26.09
2019-05-30T11:38:21.549Z,26.06
2019-05-30T11:43:23.452Z,25.98
2019-05-30T11:48:25.410Z,26.10
2019-05-30T11:53:27.339Z,26.69
2019-05-30T11:58:29.398Z,26.85
2019-05-30T12:03:31.255Z,26.47
2019-05-30T12:08:34.463Z,26.55
2019-05-30T12:13:36.255Z,26.09
2019-05-30T12:18:38.194Z,26.33
2019-05-30T12:23:40.151Z,26.56
2019-05-30T12:28:42.050Z,26.41
2019-05-30T12:33:43.841Z,26.33
2019-05-30T12:38:45.707Z,26.52
2019-05-30T12:43:47.560Z,26.37
2019-05-30T12:48:49.608Z,26.25
2019-05-30T12:53:51.529Z,25.93
2019-05-30T12:58:54.549Z,25.61
2019-05-30T13:03:56.952Z,25.80
2019-05-30T13:08:59.111Z,26.06
2019-05-30T13:14:02.635Z,26.35
2019-05-30T13:19:06.274Z,25.94
2019-05-30T13:24:08.635Z,26.11
2019-05-30T13:29:10.674Z,26.07
2019-05-30T13:34:12.639Z,25.98
2019-05-30T13:39:14.485Z,26.19
2019-05-30T13:44:16.515Z,26.16
2019-05-30T13:49:19.496Z,26.36
2019-05-30T13:54:21.507Z,25.91
2019-05-30T13:59:23.411Z,25.86
2019-05-30T14:04:25.262Z,26.09
2019-05-30T14:09:27.223Z,26.21
2019-05-30T14:14:29.238Z,26.29
2019-05-30T14:19:31.079Z,26.01
2019-05-30T14:24:32.909Z,25.94
2019-05-30T14:29:34.795Z,25.74
2019-05-30T14:34:36.834Z,25.65
2019-05-30T14:39:38.607Z,25.88
2019-05-30T14:44:40.435Z,25.88
2019-05-30T14:49:42.278Z,25.78
2019-05-30T14:54:44.132Z,25.75
2019-05-30T14:59:46.062Z,25.74
2019-05-30T15:04:48.096Z,25.69
2019-05-30T15:09:50.057Z,25.85
2019-05-30T15:14:51.864Z,25.64
2019-05-30T15:19:53.814Z,25.43
2019-05-30T15:24:55.674Z,25.27
2019-05-30T15:29:57.592Z,25.43
2019-05-30T15:34:59.460Z,25.38
2019-05-30T15:40:01.541Z,25.35
2019-05-30T15:45:10.171Z,25.35
2019-05-30T15:50:15.232Z,25.36
2019-05-30T15:55:17.765Z,25.29
2019-05-30T16:00:20.027Z,25.20
2019-05-30T16:05:22.018Z,25.04
2019-05-30T16:10:23.852Z,24.98
2019-05-30T16:15:26.162Z,24.73
2019-05-30T16:20:32.014Z,24.56
2019-05-30T16:25:34.019Z,24.27
2019-05-30T16:30:35.969Z,23.96
2019-05-30T16:35:37.833Z,23.85
2019-05-30T16:40:39.675Z,23.80
2019-05-30T16:45:41.543Z,23.49
2019-05-30T16:50:43.412Z,23.16
2019-05-30T16:55:45.319Z,23.21
2019-05-30T17:00:47.252Z,23.12
2019-05-30T17:05:49.397Z,22.64
2019-05-30T17:10:51.196Z,22.48
2019-05-30T17:15:53.059Z,22.15
2019-05-30T17:20:54.944Z,21.76
2019-05-30T17:25:56.869Z,21.49
2019-05-30T17:30:58.724Z,21.42
2019-05-30T17:36:00.609Z,21.33
2019-05-30T17:41:02.718Z,21.38
2019-05-30T17:46:07.643Z,21.26
2019-05-30T17:51:08.762Z,21.09
2019-05-30T17:56:10.815Z,20.90
2019-05-30T18:01:13.206Z,20.89
2019-05-30T18:06:15.167Z,20.63
2019-05-30T18:11:17.237Z,20.53
2019-05-30T18:16:19.195Z,20.47
2019-05-30T18:21:21.347Z,20.46
2019-05-30T18:26:23.554Z,20.36
2019-05-30T18:31:25.873Z,20.17
2019-05-30T18:36:28.393Z,20.13
2019-05-30T18:41:30.878Z,20.20
2019-05-30T18:46:33.311Z,20.12
2019-05-30T18:51:36.675Z,20.15
2019-05-30T18:56:39.091Z,19.96
2019-05-30T19:01:41.116Z,19.97
2019-05-30T19:06:43.054Z,20.00
2019-05-30T19:11:44.996Z,20.00
2019-05-30T19:16:46.898Z,19.91
2019-05-30T19:21:48.877Z,19.79
2019-05-30T19:26:50.851Z,19.78
2019-05-30T19:31:54.039Z,19.84
2019-05-30T19:36:55.946Z,19.87
2019-05-30T19:41:57.913Z,19.82
2019-05-30T19:46:59.728Z,19.57
2019-05-30T19:52:01.835Z,19.35
2019-05-30T19:57:03.694Z,19.23
2019-05-30T20:02:05.799Z,19.12
2019-05-30T20:07:07.820Z,19.05
2019-05-30T20:12:10.360Z,18.92
2019-05-30T20:17:12.425Z,18.81
2019-05-30T20:22:14.488Z,18.74
2019-05-30T20:27:18.983Z,18.60
2019-05-30T20:32:21.437Z,18.67
2019-05-30T20:37:24.457Z,18.54
2019-05-30T20:42:26.441Z,18.54
2019-05-30T20:47:28.302Z,18.66
2019-05-30T20:52:30.212Z,18.69
2019-05-30T20:57:32.022Z,18.65
2019-05-30T21:02:34.636Z,18.60
2019-05-30T21:07:38.181Z,18.49
2019-05-30T21:12:45.569Z,18.49
2019-05-30T21:17:46.098Z,18.48
2019-05-30T21:22:48.426Z,18.43
2019-05-30T21:27:50.231Z,18.36
2019-05-30T21:32:52.313Z,18.45
2019-05-30T21:37:54.417Z,18.19
2019-05-30T21:43:06.014Z,18.05
2019-05-30T21:48:00.187Z,17.96
2019-05-30T21:53:02.092Z,17.94
2019-05-30T21:58:03.872Z,17.98
2019-05-30T22:03:05.728Z,17.96
2019-05-30T22:08:07.504Z,18.07
2019-05-30T22:13:09.866Z,18.04
2019-05-30T22:18:11.916Z,18.09
2019-05-30T22:23:13.867Z,18.17
2019-05-30T22:28:15.776Z,18.15
2019-05-30T22:33:18.003Z,18.15
2019-05-30T22:38:19.806Z,18.19
2019-05-30T22:43:25.361Z,18.22
2019-05-30T22:48:25.433Z,18.28
2019-05-30T22:53:27.302Z,18.16
2019-05-30T22:58:29.104Z,18.18
2019-05-30T23:03:30.943Z,17.89
2019-05-30T23:08:32.852Z,17.85
2019-05-30T23:13:40.610Z,17.92
2019-05-30T23:18:38.392Z,17.89
2019-05-30T23:23:40.239Z,17.79
2019-05-30T23:28:42.084Z,17.82
2019-05-30T23:33:43.982Z,17.71
2019-05-30T23:38:46.828Z,17.74
2019-05-30T23:43:57.925Z,17.70
2019-05-30T23:48:53.543Z,17.71
2019-05-30T23:53:56.221Z,17.65
2019-05-30T23:58:58.889Z,17.74
